sensor_id;sensor_type;location;lat;lon;timestamp;temperature;humidity
34766;DHT22;20984;43.508;1.504;2023-03-01T00:01:27;1.20;99.90
34766;DHT22;20984;43.508;1.504;2023-03-01T00:03:54;1.20;99.90
34766;DHT22;20984;43.508;1.504;2023-03-01T00:06:20;1.00;99.90
34766;DHT22;20984;43.508;1.504;2023-03-01T00:08:47;0.90;99.90
34766;DHT22;20984;43.508;1.504;2023-03-01T00:11:15;0.90;99.90
34766;DHT22;20984;43.508;1.504;2023-03-01T00:13:43;0.80;99.90
34766;DHT22;20984;43.508;1.504;2023-03-01T00:16:14;0.70;99.90
34766;DHT22;20984;43.508;1.504;2023-03-01T00:18:40;0.70;99.90
34766;DHT22;20984;43.508;1.504;2023-03-01T00:21:06;0.60;99.90
34766;DHT22;20984;43.508;1.504;2023-03-01T00:23:34;0.60;99.90
34766;DHT22;20984;43.508;1.504;2023-03-01T00:26:00;0.60;99.90
34766;DHT22;20984;43.508;1.504;2023-03-01T00:28:26;0.70;99.90
34766;DHT22;20984;43.508;1.504;2023-03-01T00:30:51;0.70;99.90
34766;DHT22;20984;43.508;1.504;2023-03-01T00:33:17;0.80;99.90
34766;DHT22;20984;43.508;1.504;2023-03-01T00:35:43;0.80;99.90
34766;DHT22;20984;43.508;1.504;2023-03-01T00:38:09;0.90;99.90
34766;DHT22;20984;43.508;1.504;2023-03-01T00:40:36;0.90;99.90
34766;DHT22;20984;43.508;1.504;2023-03-01T00:43:02;0.90;99.90
34766;DHT22;20984;43.508;1.504;2023-03-01T00:45:28;0.80;99.90
34766;DHT22;20984;43.508;1.504;2023-03-01T00:47:54;0.80;99.90
34766;DHT22;20984;43.508;1.504;2023-03-01T00:50:20;0.80;99.90
34766;DHT22;20984;43.508;1.504;2023-03-01T00:52:46;0.90;99.90
34766;DHT22;20984;43.508;1.504;2023-03-01T00:55:12;0.90;99.90
34766;DHT22;20984;43.508;1.504;2023-03-01T00:57:38;0.80;99.90
34766;DHT22;20984;43.508;1.504;2023-03-01T01:00:05;0.80;99.90
34766;DHT22;20984;43.508;1.504;2023-03-01T01:02:35;0.80;99.90
34766;DHT22;20984;43.508;1.504;2023-03-01T01:05:00;0.80;99.90
34766;DHT22;20984;43.508;1.504;2023-03-01T01:07:26;0.70;99.90
34766;DHT22;20984;43.508;1.504;2023-03-01T01:09:52;0.70;99.90
34766;DHT22;20984;43.508;1.504;2023-03-01T01:12:18;0.70;99.90
34766;DHT22;20984;43.508;1.504;2023-03-01T01:14:43;0.60;99.90
34766;DHT22;20984;43.508;1.504;2023-03-01T01:17:09;0.60;99.90
34766;DHT22;20984;43.508;1.504;2023-03-01T01:19:35;0.40;99.90
34766;DHT22;20984;43.508;1.504;2023-03-01T01:22:00;0.30;99.90
34766;DHT22;20984;43.508;1.504;2023-03-01T01:24:26;0.20;99.90
34766;DHT22;20984;43.508;1.504;2023-03-01T01:26:51;0.10;99.90
34766;DHT22;20984;43.508;1.504;2023-03-01T01:29:18;-0.10;99.90
34766;DHT22;20984;43.508;1.504;2023-03-01T01:31:43;-0.30;99.90
34766;DHT22;20984;43.508;1.504;2023-03-01T01:34:14;-0.40;99.90
34766;DHT22;20984;43.508;1.504;2023-03-01T01:36:40;-0.40;99.90
34766;DHT22;20984;43.508;1.504;2023-03-01T01:39:06;-0.40;99.90
34766;DHT22;20984;43.508;1.504;2023-03-01T01:41:32;-0.30;99.90
34766;DHT22;20984;43.508;1.504;2023-03-01T01:46:45;-0.20;99.90
34766;DHT22;20984;43.508;1.504;2023-03-01T01:49:26;-0.20;99.90
34766;DHT22;20984;43.508;1.504;2023-03-01T01:51:57;-0.30;99.90
34766;DHT22;20984;43.508;1.504;2023-03-01T01:54:29;-0.30;99.90
34766;DHT22;20984;43.508;1.504;2023-03-01T01:57:01;-0.40;99.90
34766;DHT22;20984;43.508;1.504;2023-03-01T01:59:30;-0.40;99.90
34766;DHT22;20984;43.508;1.504;2023-03-01T02:01:59;-0.50;99.90
34766;DHT22;20984;43.508;1.504;2023-03-01T02:04:26;-0.60;99.90
34766;DHT22;20984;43.508;1.504;2023-03-01T02:06:58;-0.60;99.90
34766;DHT22;20984;43.508;1.504;2023-03-01T02:09:26;-0.60;99.90
34766;DHT22;20984;43.508;1.504;2023-03-01T02:11:53;-0.60;99.90
34766;DHT22;20984;43.508;1.504;2023-03-01T02:14:19;-0.70;99.90
34766;DHT22;20984;43.508;1.504;2023-03-01T02:16:45;-0.70;99.90
34766;DHT22;20984;43.508;1.504;2023-03-01T02:19:38;-0.70;99.90
34766;DHT22;20984;43.508;1.504;2023-03-01T02:22:16;-0.70;99.90
34766;DHT22;20984;43.508;1.504;2023-03-01T02:27:27;-0.90;99.90
34766;DHT22;20984;43.508;1.504;2023-03-01T02:29:56;-0.90;99.90
34766;DHT22;20984;43.508;1.504;2023-03-01T02:32:22;-1.00;99.90
34766;DHT22;20984;43.508;1.504;2023-03-01T02:34:52;-1.10;99.90
34766;DHT22;20984;43.508;1.504;2023-03-01T02:37:19;-1.00;99.90
34766;DHT22;20984;43.508;1.504;2023-03-01T02:39:56;-1.00;99.90
34766;DHT22;20984;43.508;1.504;2023-03-01T02:42:28;-0.90;99.90
34766;DHT22;20984;43.508;1.504;2023-03-01T02:44:56;-1.00;99.90
34766;DHT22;20984;43.508;1.504;2023-03-01T02:47:21;-0.90;99.90
34766;DHT22;20984;43.508;1.504;2023-03-01T02:49:47;-1.00;99.90
34766;DHT22;20984;43.508;1.504;2023-03-01T02:52:45;-1.00;99.90
34766;DHT22;20984;43.508;1.504;2023-03-01T02:55:17;-0.90;99.90
34766;DHT22;20984;43.508;1.504;2023-03-01T02:57:44;-1.00;99.90
34766;DHT22;20984;43.508;1.504;2023-03-01T03:00:17;-1.00;99.90
34766;DHT22;20984;43.508;1.504;2023-03-01T03:02:46;-1.00;99.90
34766;DHT22;20984;43.508;1.504;2023-03-01T03:05:18;-1.10;99.90
34766;DHT22;20984;43.508;1.504;2023-03-01T03:07:46;-1.10;99.90
34766;DHT22;20984;43.508;1.504;2023-03-01T03:10:16;-1.10;99.90
34766;DHT22;20984;43.508;1.504;2023-03-01T03:12:42;-1.20;99.90
34766;DHT22;20984;43.508;1.504;2023-03-01T03:15:09;-1.20;99.90
34766;DHT22;20984;43.508;1.504;2023-03-01T03:17:36;-1.20;99.90
34766;DHT22;20984;43.508;1.504;2023-03-01T03:20:04;-1.20;99.90
34766;DHT22;20984;43.508;1.504;2023-03-01T03:22:30;-1.20;99.90
34766;DHT22;20984;43.508;1.504;2023-03-01T03:24:56;-1.30;99.90
34766;DHT22;20984;43.508;1.504;2023-03-01T03:27:22;-1.40;99.90
34766;DHT22;20984;43.508;1.504;2023-03-01T03:29:47;-1.40;99.90
34766;DHT22;20984;43.508;1.504;2023-03-01T03:32:13;-1.50;99.90
34766;DHT22;20984;43.508;1.504;2023-03-01T03:34:38;-1.50;99.90
34766;DHT22;20984;43.508;1.504;2023-03-01T03:37:04;-1.60;99.90
34766;DHT22;20984;43.508;1.504;2023-03-01T03:39:50;-1.70;99.90
34766;DHT22;20984;43.508;1.504;2023-03-01T03:42:20;-1.80;99.90
34766;DHT22;20984;43.508;1.504;2023-03-01T03:44:47;-1.90;99.90
34766;DHT22;20984;43.508;1.504;2023-03-01T03:47:12;-1.90;99.90
34766;DHT22;20984;43.508;1.504;2023-03-01T03:49:38;-1.90;99.90
34766;DHT22;20984;43.508;1.504;2023-03-01T03:52:04;-1.90;99.90
34766;DHT22;20984;43.508;1.504;2023-03-01T03:54:29;-1.90;99.90
34766;DHT22;20984;43.508;1.504;2023-03-01T03:56:55;-2.00;99.90
34766;DHT22;20984;43.508;1.504;2023-03-01T03:59:21;-2.00;99.90
34766;DHT22;20984;43.508;1.504;2023-03-01T04:01:46;-2.10;99.90
34766;DHT22;20984;43.508;1.504;2023-03-01T04:04:12;-2.10;99.90
34766;DHT22;20984;43.508;1.504;2023-03-01T04:06:38;-2.20;99.90
34766;DHT22;20984;43.508;1.504;2023-03-01T04:09:04;-2.20;99.90
34766;DHT22;20984;43.508;1.504;2023-03-01T04:11:30;-2.20;99.90
34766;DHT22;20984;43.508;1.504;2023-03-01T04:13:57;-2.30;99.90
34766;DHT22;20984;43.508;1.504;2023-03-01T04:16:24;-2.30;99.90
34766;DHT22;20984;43.508;1.504;2023-03-01T04:18:50;-2.30;99.90
34766;DHT22;20984;43.508;1.504;2023-03-01T04:21:16;-2.40;99.90
34766;DHT22;20984;43.508;1.504;2023-03-01T04:23:43;-2.40;99.90
34766;DHT22;20984;43.508;1.504;2023-03-01T04:26:08;-2.50;99.90
34766;DHT22;20984;43.508;1.504;2023-03-01T04:28:37;-2.50;99.90
34766;DHT22;20984;43.508;1.504;2023-03-01T04:31:08;-2.50;99.90
34766;DHT22;20984;43.508;1.504;2023-03-01T04:33:48;-2.50;99.90
34766;DHT22;20984;43.508;1.504;2023-03-01T04:36:16;-2.50;99.90
34766;DHT22;20984;43.508;1.504;2023-03-01T04:38:43;-2.60;99.90
34766;DHT22;20984;43.508;1.504;2023-03-01T04:41:12;-2.60;99.90
34766;DHT22;20984;43.508;1.504;2023-03-01T04:43:38;-2.60;99.90
34766;DHT22;20984;43.508;1.504;2023-03-01T04:46:09;-2.70;99.90
34766;DHT22;20984;43.508;1.504;2023-03-01T04:48:37;-2.70;99.90
34766;DHT22;20984;43.508;1.504;2023-03-01T04:51:04;-2.70;99.90
34766;DHT22;20984;43.508;1.504;2023-03-01T04:53:31;-2.70;99.90
34766;DHT22;20984;43.508;1.504;2023-03-01T04:55:58;-2.80;99.90
34766;DHT22;20984;43.508;1.504;2023-03-01T04:58:27;-2.80;99.90
34766;DHT22;20984;43.508;1.504;2023-03-01T05:00:54;-2.80;99.90
34766;DHT22;20984;43.508;1.504;2023-03-01T05:03:21;-2.80;99.90
34766;DHT22;20984;43.508;1.504;2023-03-01T05:05:48;-2.70;99.90
34766;DHT22;20984;43.508;1.504;2023-03-01T05:08:14;-2.70;99.90
34766;DHT22;20984;43.508;1.504;2023-03-01T05:10:45;-2.70;99.90
34766;DHT22;20984;43.508;1.504;2023-03-01T05:13:12;-2.70;99.90
34766;DHT22;20984;43.508;1.504;2023-03-01T05:15:39;-2.60;99.90
34766;DHT22;20984;43.508;1.504;2023-03-01T05:18:05;-2.60;99.90
34766;DHT22;20984;43.508;1.504;2023-03-01T05:20:37;-2.60;99.90
34766;DHT22;20984;43.508;1.504;2023-03-01T05:23:03;-2.50;99.90
34766;DHT22;20984;43.508;1.504;2023-03-01T05:25:32;-2.60;99.90
34766;DHT22;20984;43.508;1.504;2023-03-01T05:28:02;-2.70;99.90
34766;DHT22;20984;43.508;1.504;2023-03-01T05:30:31;-2.70;99.90
34766;DHT22;20984;43.508;1.504;2023-03-01T05:32:58;-2.80;99.90
34766;DHT22;20984;43.508;1.504;2023-03-01T05:35:24;-2.90;99.90
34766;DHT22;20984;43.508;1.504;2023-03-01T05:37:50;-2.90;99.90
34766;DHT22;20984;43.508;1.504;2023-03-01T05:40:18;-3.00;99.90
34766;DHT22;20984;43.508;1.504;2023-03-01T05:42:47;-3.00;99.90
34766;DHT22;20984;43.508;1.504;2023-03-01T05:45:15;-3.00;99.90
34766;DHT22;20984;43.508;1.504;2023-03-01T05:47:42;-3.00;99.90
34766;DHT22;20984;43.508;1.504;2023-03-01T05:50:30;-3.00;99.90
34766;DHT22;20984;43.508;1.504;2023-03-01T05:53:17;-3.00;99.90
34766;DHT22;20984;43.508;1.504;2023-03-01T05:55:44;-3.00;99.90
34766;DHT22;20984;43.508;1.504;2023-03-01T05:58:15;-3.00;99.90
34766;DHT22;20984;43.508;1.504;2023-03-01T06:00:42;-2.90;99.90
34766;DHT22;20984;43.508;1.504;2023-03-01T06:03:10;-2.90;99.90
34766;DHT22;20984;43.508;1.504;2023-03-01T06:05:36;-2.80;99.90
34766;DHT22;20984;43.508;1.504;2023-03-01T06:08:02;-2.90;99.90
34766;DHT22;20984;43.508;1.504;2023-03-01T06:10:29;-2.90;99.90
34766;DHT22;20984;43.508;1.504;2023-03-01T06:12:55;-2.90;99.90
34766;DHT22;20984;43.508;1.504;2023-03-01T06:15:21;-3.00;99.90
34766;DHT22;20984;43.508;1.504;2023-03-01T06:17:47;-3.00;99.90
34766;DHT22;20984;43.508;1.504;2023-03-01T06:20:16;-3.10;99.90
34766;DHT22;20984;43.508;1.504;2023-03-01T06:22:42;-3.10;99.90
34766;DHT22;20984;43.508;1.504;2023-03-01T06:25:09;-3.10;99.90
34766;DHT22;20984;43.508;1.504;2023-03-01T06:27:35;-3.10;99.90
34766;DHT22;20984;43.508;1.504;2023-03-01T06:30:02;-3.10;99.90
34766;DHT22;20984;43.508;1.504;2023-03-01T06:32:27;-3.20;99.90
34766;DHT22;20984;43.508;1.504;2023-03-01T06:34:53;-3.20;99.90
34766;DHT22;20984;43.508;1.504;2023-03-01T06:37:19;-3.30;99.90
34766;DHT22;20984;43.508;1.504;2023-03-01T06:39:44;-3.30;99.90
34766;DHT22;20984;43.508;1.504;2023-03-01T06:42:10;-3.30;99.90
34766;DHT22;20984;43.508;1.504;2023-03-01T06:44:37;-3.30;99.90
34766;DHT22;20984;43.508;1.504;2023-03-01T06:47:03;-3.30;99.90
34766;DHT22;20984;43.508;1.504;2023-03-01T06:49:29;-3.30;99.90
34766;DHT22;20984;43.508;1.504;2023-03-01T06:51:56;-3.30;99.90
34766;DHT22;20984;43.508;1.504;2023-03-01T06:54:21;-3.30;99.90
34766;DHT22;20984;43.508;1.504;2023-03-01T06:56:48;-3.30;99.90
34766;DHT22;20984;43.508;1.504;2023-03-01T06:59:14;-3.20;99.90
34766;DHT22;20984;43.508;1.504;2023-03-01T07:01:40;-3.20;99.90
34766;DHT22;20984;43.508;1.504;2023-03-01T07:04:06;-3.10;99.90
34766;DHT22;20984;43.508;1.504;2023-03-01T07:06:32;-3.10;99.90
34766;DHT22;20984;43.508;1.504;2023-03-01T07:08:58;-3.00;99.90
34766;DHT22;20984;43.508;1.504;2023-03-01T07:11:23;-3.00;99.90
34766;DHT22;20984;43.508;1.504;2023-03-01T07:13:49;-3.00;99.90
34766;DHT22;20984;43.508;1.504;2023-03-01T07:16:15;-2.90;99.90
34766;DHT22;20984;43.508;1.504;2023-03-01T07:18:41;-2.90;99.90
34766;DHT22;20984;43.508;1.504;2023-03-01T07:21:07;-2.80;99.90
34766;DHT22;20984;43.508;1.504;2023-03-01T07:23:33;-2.70;99.90
34766;DHT22;20984;43.508;1.504;2023-03-01T07:25:59;-2.60;99.90
34766;DHT22;20984;43.508;1.504;2023-03-01T07:28:26;-2.50;99.90
34766;DHT22;20984;43.508;1.504;2023-03-01T07:30:52;-2.40;99.90
34766;DHT22;20984;43.508;1.504;2023-03-01T07:33:17;-2.40;99.90
34766;DHT22;20984;43.508;1.504;2023-03-01T07:35:43;-2.30;99.90
34766;DHT22;20984;43.508;1.504;2023-03-01T07:38:09;-2.20;99.90
34766;DHT22;20984;43.508;1.504;2023-03-01T07:40:35;-2.10;99.90
34766;DHT22;20984;43.508;1.504;2023-03-01T07:43:00;-2.10;99.90
34766;DHT22;20984;43.508;1.504;2023-03-01T07:45:27;-2.00;99.90
34766;DHT22;20984;43.508;1.504;2023-03-01T07:47:53;-1.90;99.90
34766;DHT22;20984;43.508;1.504;2023-03-01T07:50:19;-1.90;99.90
34766;DHT22;20984;43.508;1.504;2023-03-01T07:52:46;-1.80;99.90
34766;DHT22;20984;43.508;1.504;2023-03-01T07:55:12;-1.70;99.90
34766;DHT22;20984;43.508;1.504;2023-03-01T07:57:38;-1.60;99.90
34766;DHT22;20984;43.508;1.504;2023-03-01T08:00:05;-1.50;99.90
34766;DHT22;20984;43.508;1.504;2023-03-01T08:02:31;-1.30;99.90
34766;DHT22;20984;43.508;1.504;2023-03-01T08:04:57;-1.30;99.90
34766;DHT22;20984;43.508;1.504;2023-03-01T08:07:22;-1.20;99.90
34766;DHT22;20984;43.508;1.504;2023-03-01T08:09:48;-1.10;99.90
34766;DHT22;20984;43.508;1.504;2023-03-01T08:12:14;-1.10;99.90
34766;DHT22;20984;43.508;1.504;2023-03-01T08:14:41;-1.00;99.90
34766;DHT22;20984;43.508;1.504;2023-03-01T08:17:07;-0.90;99.90
34766;DHT22;20984;43.508;1.504;2023-03-01T08:19:33;-0.80;99.90
34766;DHT22;20984;43.508;1.504;2023-03-01T08:22:02;-0.70;99.90
34766;DHT22;20984;43.508;1.504;2023-03-01T08:24:28;-0.60;99.90
34766;DHT22;20984;43.508;1.504;2023-03-01T08:26:54;-0.50;99.90
34766;DHT22;20984;43.508;1.504;2023-03-01T08:29:21;-0.40;99.90
34766;DHT22;20984;43.508;1.504;2023-03-01T08:31:48;-0.20;99.90
34766;DHT22;20984;43.508;1.504;2023-03-01T08:34:16;-0.10;99.90
34766;DHT22;20984;43.508;1.504;2023-03-01T08:36:44;0.00;99.90
34766;DHT22;20984;43.508;1.504;2023-03-01T08:39:12;0.10;99.90
34766;DHT22;20984;43.508;1.504;2023-03-01T08:41:39;0.30;99.90
34766;DHT22;20984;43.508;1.504;2023-03-01T08:44:05;0.40;99.90
34766;DHT22;20984;43.508;1.504;2023-03-01T08:46:35;0.60;99.90
34766;DHT22;20984;43.508;1.504;2023-03-01T08:49:15;0.60;99.90
34766;DHT22;20984;43.508;1.504;2023-03-01T08:51:43;0.80;99.90
34766;DHT22;20984;43.508;1.504;2023-03-01T08:54:14;1.00;99.90
34766;DHT22;20984;43.508;1.504;2023-03-01T08:56:40;1.10;99.90
34766;DHT22;20984;43.508;1.504;2023-03-01T08:59:06;1.40;99.90
34766;DHT22;20984;43.508;1.504;2023-03-01T09:01:32;1.60;99.90
34766;DHT22;20984;43.508;1.504;2023-03-01T09:03:58;1.80;99.90
34766;DHT22;20984;43.508;1.504;2023-03-01T09:06:24;2.00;99.90
34766;DHT22;20984;43.508;1.504;2023-03-01T09:08:50;2.10;99.90
34766;DHT22;20984;43.508;1.504;2023-03-01T09:11:19;2.20;99.90
34766;DHT22;20984;43.508;1.504;2023-03-01T09:13:46;2.30;99.90
34766;DHT22;20984;43.508;1.504;2023-03-01T09:16:13;2.40;99.90
34766;DHT22;20984;43.508;1.504;2023-03-01T09:18:39;2.50;99.90
34766;DHT22;20984;43.508;1.504;2023-03-01T09:21:09;2.60;99.90
34766;DHT22;20984;43.508;1.504;2023-03-01T09:23:40;2.70;99.90
34766;DHT22;20984;43.508;1.504;2023-03-01T09:26:11;2.80;99.90
34766;DHT22;20984;43.508;1.504;2023-03-01T09:28:38;2.90;99.90
34766;DHT22;20984;43.508;1.504;2023-03-01T09:31:04;2.90;99.90
34766;DHT22;20984;43.508;1.504;2023-03-01T09:33:31;3.00;99.90
34766;DHT22;20984;43.508;1.504;2023-03-01T09:36:02;2.90;99.90
34766;DHT22;20984;43.508;1.504;2023-03-01T09:38:29;3.00;99.90
34766;DHT22;20984;43.508;1.504;2023-03-01T09:40:55;3.00;99.90
34766;DHT22;20984;43.508;1.504;2023-03-01T09:45:54;3.10;99.90
34766;DHT22;20984;43.508;1.504;2023-03-01T09:48:24;3.00;99.90
34766;DHT22;20984;43.508;1.504;2023-03-01T09:50:52;3.10;99.90
34766;DHT22;20984;43.508;1.504;2023-03-01T09:53:21;3.10;99.90
34766;DHT22;20984;43.508;1.504;2023-03-01T09:56:04;3.20;99.90
34766;DHT22;20984;43.508;1.504;2023-03-01T10:01:23;3.40;99.90
34766;DHT22;20984;43.508;1.504;2023-03-01T10:04:09;3.50;99.90
34766;DHT22;20984;43.508;1.504;2023-03-01T10:06:36;3.60;99.90
34766;DHT22;20984;43.508;1.504;2023-03-01T10:09:16;3.60;99.90
34766;DHT22;20984;43.508;1.504;2023-03-01T10:11:45;3.50;99.90
34766;DHT22;20984;43.508;1.504;2023-03-01T10:14:23;3.60;99.90
34766;DHT22;20984;43.508;1.504;2023-03-01T10:17:48;3.60;99.90
34766;DHT22;20984;43.508;1.504;2023-03-01T10:19:47;3.60;99.90
34766;DHT22;20984;43.508;1.504;2023-03-01T10:22:17;3.60;99.90
34766;DHT22;20984;43.508;1.504;2023-03-01T10:24:44;3.60;99.90
34766;DHT22;20984;43.508;1.504;2023-03-01T10:30:38;3.70;99.90
34766;DHT22;20984;43.508;1.504;2023-03-01T10:33:18;3.80;99.90
34766;DHT22;20984;43.508;1.504;2023-03-01T10:35:45;3.80;99.90
34766;DHT22;20984;43.508;1.504;2023-03-01T10:38:14;3.70;99.90
34766;DHT22;20984;43.508;1.504;2023-03-01T10:40:59;3.80;99.90
34766;DHT22;20984;43.508;1.504;2023-03-01T10:43:32;3.80;99.90
34766;DHT22;20984;43.508;1.504;2023-03-01T10:49:22;4.10;99.90
34766;DHT22;20984;43.508;1.504;2023-03-01T10:51:52;4.20;99.90
34766;DHT22;20984;43.508;1.504;2023-03-01T10:54:31;4.20;99.90
34766;DHT22;20984;43.508;1.504;2023-03-01T10:56:59;4.30;99.70
34766;DHT22;20984;43.508;1.504;2023-03-01T10:59:30;4.30;99.40
34766;DHT22;20984;43.508;1.504;2023-03-01T11:02:21;4.40;97.30
34766;DHT22;20984;43.508;1.504;2023-03-01T11:07:55;4.50;96.70
34766;DHT22;20984;43.508;1.504;2023-03-01T11:10:33;4.50;95.70
34766;DHT22;20984;43.508;1.504;2023-03-01T11:13:17;4.50;95.80
34766;DHT22;20984;43.508;1.504;2023-03-01T11:16:01;4.60;95.10
34766;DHT22;20984;43.508;1.504;2023-03-01T11:18:29;4.60;95.20
34766;DHT22;20984;43.508;1.504;2023-03-01T11:20:56;4.60;96.40
34766;DHT22;20984;43.508;1.504;2023-03-01T11:23:23;4.70;94.60
34766;DHT22;20984;43.508;1.504;2023-03-01T11:25:59;4.70;94.60
34766;DHT22;20984;43.508;1.504;2023-03-01T11:28:27;4.70;94.60
34766;DHT22;20984;43.508;1.504;2023-03-01T11:30:54;4.70;94.30
34766;DHT22;20984;43.508;1.504;2023-03-01T11:33:44;4.70;95.40
34766;DHT22;20984;43.508;1.504;2023-03-01T11:38:55;4.80;94.10
34766;DHT22;20984;43.508;1.504;2023-03-01T11:41:25;4.90;94.30
34766;DHT22;20984;43.508;1.504;2023-03-01T11:44:01;5.00;93.80
34766;DHT22;20984;43.508;1.504;2023-03-01T11:49:06;5.10;93.70
34766;DHT22;20984;43.508;1.504;2023-03-01T12:14:28;5.30;93.50
34766;DHT22;20984;43.508;1.504;2023-03-01T12:20:11;5.30;94.30
34766;DHT22;20984;43.508;1.504;2023-03-01T12:25:41;5.60;93.30
34766;DHT22;20984;43.508;1.504;2023-03-01T12:30:42;5.60;91.80
34766;DHT22;20984;43.508;1.504;2023-03-01T12:33:21;5.60;92.60
34766;DHT22;20984;43.508;1.504;2023-03-01T12:49:40;5.90;91.80
34766;DHT22;20984;43.508;1.504;2023-03-01T12:54:56;5.90;92.10
34766;DHT22;20984;43.508;1.504;2023-03-01T12:57:28;6.00;92.00
34766;DHT22;20984;43.508;1.504;2023-03-01T13:00:24;6.10;91.50
34766;DHT22;20984;43.508;1.504;2023-03-01T13:11:22;6.10;92.20
34766;DHT22;20984;43.508;1.504;2023-03-01T13:13:49;6.10;91.90
34766;DHT22;20984;43.508;1.504;2023-03-01T13:16:40;6.20;91.30
34766;DHT22;20984;43.508;1.504;2023-03-01T13:19:18;6.20;91.90
34766;DHT22;20984;43.508;1.504;2023-03-01T13:21:45;6.20;91.50
34766;DHT22;20984;43.508;1.504;2023-03-01T13:24:24;6.20;92.20
34766;DHT22;20984;43.508;1.504;2023-03-01T13:29:54;6.30;91.00
34766;DHT22;20984;43.508;1.504;2023-03-01T13:32:28;6.30;90.90
34766;DHT22;20984;43.508;1.504;2023-03-01T13:34:55;6.40;90.60
34766;DHT22;20984;43.508;1.504;2023-03-01T13:37:27;6.40;90.40
34766;DHT22;20984;43.508;1.504;2023-03-01T13:39:56;6.40;91.20
34766;DHT22;20984;43.508;1.504;2023-03-01T13:42:38;6.50;91.00
34766;DHT22;20984;43.508;1.504;2023-03-01T13:47:50;6.50;90.50
34766;DHT22;20984;43.508;1.504;2023-03-01T13:50:29;6.40;90.40
34766;DHT22;20984;43.508;1.504;2023-03-01T13:53:01;6.40;90.20
34766;DHT22;20984;43.508;1.504;2023-03-01T13:55:47;6.40;90.50
34766;DHT22;20984;43.508;1.504;2023-03-01T13:58:31;6.50;90.40
34766;DHT22;20984;43.508;1.504;2023-03-01T14:01:06;6.50;89.60
34766;DHT22;20984;43.508;1.504;2023-03-01T14:03:33;6.60;90.00
34766;DHT22;20984;43.508;1.504;2023-03-01T14:06:16;6.50;90.10
34766;DHT22;20984;43.508;1.504;2023-03-01T14:08:46;6.50;89.30
34766;DHT22;20984;43.508;1.504;2023-03-01T14:19:20;6.70;89.20
34766;DHT22;20984;43.508;1.504;2023-03-01T14:22:20;6.70;89.40
34766;DHT22;20984;43.508;1.504;2023-03-01T14:24:57;6.70;89.00
34766;DHT22;20984;43.508;1.504;2023-03-01T14:27:35;6.70;89.30
34766;DHT22;20984;43.508;1.504;2023-03-01T14:30:08;6.80;89.50
34766;DHT22;20984;43.508;1.504;2023-03-01T14:32:35;6.90;89.30
34766;DHT22;20984;43.508;1.504;2023-03-01T14:35:01;6.80;88.20
34766;DHT22;20984;43.508;1.504;2023-03-01T14:37:31;6.80;88.80
34766;DHT22;20984;43.508;1.504;2023-03-01T14:39:59;6.60;89.00
34766;DHT22;20984;43.508;1.504;2023-03-01T14:42:28;6.70;89.60
34766;DHT22;20984;43.508;1.504;2023-03-01T14:44:55;6.70;88.80
34766;DHT22;20984;43.508;1.504;2023-03-01T14:47:32;6.80;89.20
34766;DHT22;20984;43.508;1.504;2023-03-01T14:50:07;6.90;88.90
34766;DHT22;20984;43.508;1.504;2023-03-01T14:52:40;6.90;89.30
34766;DHT22;20984;43.508;1.504;2023-03-01T14:55:24;6.90;89.20
34766;DHT22;20984;43.508;1.504;2023-03-01T14:57:52;6.80;87.90
34766;DHT22;20984;43.508;1.504;2023-03-01T15:00:24;6.90;88.60
34766;DHT22;20984;43.508;1.504;2023-03-01T15:02:52;7.00;89.00
34766;DHT22;20984;43.508;1.504;2023-03-01T15:05:33;7.10;88.50
34766;DHT22;20984;43.508;1.504;2023-03-01T15:08:00;7.10;88.00
34766;DHT22;20984;43.508;1.504;2023-03-01T15:10:35;7.10;88.40
34766;DHT22;20984;43.508;1.504;2023-03-01T15:13:14;7.10;88.20
34766;DHT22;20984;43.508;1.504;2023-03-01T15:15:47;7.00;87.90
34766;DHT22;20984;43.508;1.504;2023-03-01T15:20:42;6.90;89.60
34766;DHT22;20984;43.508;1.504;2023-03-01T15:25:44;6.80;88.70
34766;DHT22;20984;43.508;1.504;2023-03-01T15:28:19;6.80;89.50
34766;DHT22;20984;43.508;1.504;2023-03-01T15:30:46;6.80;89.80
34766;DHT22;20984;43.508;1.504;2023-03-01T15:35:54;6.80;90.40
34766;DHT22;20984;43.508;1.504;2023-03-01T15:40:52;6.90;89.90
34766;DHT22;20984;43.508;1.504;2023-03-01T15:43:41;7.00;89.70
34766;DHT22;20984;43.508;1.504;2023-03-01T15:46:23;7.00;89.90
34766;DHT22;20984;43.508;1.504;2023-03-01T15:48:58;7.10;89.90
34766;DHT22;20984;43.508;1.504;2023-03-01T15:51:31;6.90;90.00
34766;DHT22;20984;43.508;1.504;2023-03-01T15:54:02;6.90;90.20
34766;DHT22;20984;43.508;1.504;2023-03-01T15:56:29;6.80;90.40
34766;DHT22;20984;43.508;1.504;2023-03-01T15:58:58;6.70;90.50
34766;DHT22;20984;43.508;1.504;2023-03-01T16:01:24;6.60;90.70
34766;DHT22;20984;43.508;1.504;2023-03-01T16:03:51;6.40;90.80
34766;DHT22;20984;43.508;1.504;2023-03-01T16:06:16;6.40;90.90
34766;DHT22;20984;43.508;1.504;2023-03-01T16:08:42;6.30;91.10
34766;DHT22;20984;43.508;1.504;2023-03-01T16:11:17;6.20;91.30
34766;DHT22;20984;43.508;1.504;2023-03-01T16:13:43;6.20;91.50
34766;DHT22;20984;43.508;1.504;2023-03-01T16:16:10;6.20;91.50
34766;DHT22;20984;43.508;1.504;2023-03-01T16:18:45;6.10;91.60
34766;DHT22;20984;43.508;1.504;2023-03-01T16:21:19;6.00;91.80
34766;DHT22;20984;43.508;1.504;2023-03-01T16:23:45;5.90;92.10
34766;DHT22;20984;43.508;1.504;2023-03-01T16:26:12;5.90;91.70
34766;DHT22;20984;43.508;1.504;2023-03-01T16:28:39;5.90;91.60
34766;DHT22;20984;43.508;1.504;2023-03-01T16:31:05;5.80;91.50
34766;DHT22;20984;43.508;1.504;2023-03-01T16:33:31;5.80;91.90
34766;DHT22;20984;43.508;1.504;2023-03-01T16:35:57;5.70;92.20
34766;DHT22;20984;43.508;1.504;2023-03-01T16:38:25;5.70;92.30
34766;DHT22;20984;43.508;1.504;2023-03-01T16:40:51;5.70;92.40
34766;DHT22;20984;43.508;1.504;2023-03-01T16:43:17;5.60;92.40
34766;DHT22;20984;43.508;1.504;2023-03-01T16:45:42;5.60;92.50
34766;DHT22;20984;43.508;1.504;2023-03-01T16:48:10;5.60;92.60
34766;DHT22;20984;43.508;1.504;2023-03-01T16:50:36;5.60;92.60
34766;DHT22;20984;43.508;1.504;2023-03-01T16:53:02;5.50;93.50
34766;DHT22;20984;43.508;1.504;2023-03-01T16:55:28;5.40;93.60
34766;DHT22;20984;43.508;1.504;2023-03-01T16:57:54;5.40;93.40
34766;DHT22;20984;43.508;1.504;2023-03-01T17:00:20;5.30;93.40
34766;DHT22;20984;43.508;1.504;2023-03-01T17:02:46;5.40;93.90
34766;DHT22;20984;43.508;1.504;2023-03-01T17:05:11;5.30;93.90
34766;DHT22;20984;43.508;1.504;2023-03-01T17:07:37;5.30;94.20
34766;DHT22;20984;43.508;1.504;2023-03-01T17:10:05;5.20;93.80
34766;DHT22;20984;43.508;1.504;2023-03-01T17:12:33;5.20;94.10
34766;DHT22;20984;43.508;1.504;2023-03-01T17:14:59;5.20;94.00
34766;DHT22;20984;43.508;1.504;2023-03-01T17:17:25;5.10;94.20
34766;DHT22;20984;43.508;1.504;2023-03-01T17:19:51;5.10;94.50
34766;DHT22;20984;43.508;1.504;2023-03-01T17:22:18;5.10;94.60
34766;DHT22;20984;43.508;1.504;2023-03-01T17:24:44;5.00;94.90
34766;DHT22;20984;43.508;1.504;2023-03-01T17:27:11;4.90;95.00
34766;DHT22;20984;43.508;1.504;2023-03-01T17:29:38;4.90;94.90
34766;DHT22;20984;43.508;1.504;2023-03-01T17:32:05;4.80;95.10
34766;DHT22;20984;43.508;1.504;2023-03-01T17:34:32;4.80;95.30
34766;DHT22;20984;43.508;1.504;2023-03-01T17:36:58;4.70;95.30
34766;DHT22;20984;43.508;1.504;2023-03-01T17:39:24;4.70;95.20